sensor_id;sensor_type;location;lat;lon;timestamp;P1;durP1;ratioP1;P2;durP2;ratioP2
52456;SDS011;38369;52.840;7.082;2022-11-06T00:01:23;14.75;;;7.93;;
52456;SDS011;38369;52.840;7.082;2022-11-06T00:03:52;14.48;;;8.32;;
52456;SDS011;38369;52.840;7.082;2022-11-06T00:06:18;15.85;;;9.38;;
52456;SDS011;38369;52.840;7.082;2022-11-06T00:09:23;14.93;;;7.85;;
52456;SDS011;38369;52.840;7.082;2022-11-06T00:11:49;14.50;;;6.88;;
52456;SDS011;38369;52.840;7.082;2022-11-06T00:14:17;16.52;;;8.25;;
52456;SDS011;38369;52.840;7.082;2022-11-06T00:16:44;14.35;;;7.32;;
52456;SDS011;38369;52.840;7.082;2022-11-06T00:19:10;14.15;;;7.18;;
52456;SDS011;38369;52.840;7.082;2022-11-06T00:21:36;10.48;;;7.18;;
52456;SDS011;38369;52.840;7.082;2022-11-06T00:24:03;13.15;;;8.43;;
52456;SDS011;38369;52.840;7.082;2022-11-06T00:26:30;15.38;;;7.10;;
52456;SDS011;38369;52.840;7.082;2022-11-06T00:28:56;11.90;;;6.78;;
52456;SDS011;38369;52.840;7.082;2022-11-06T00:31:23;14.85;;;8.25;;
52456;SDS011;38369;52.840;7.082;2022-11-06T00:33:49;15.98;;;7.80;;
52456;SDS011;38369;52.840;7.082;2022-11-06T00:36:17;12.60;;;8.25;;
52456;SDS011;38369;52.840;7.082;2022-11-06T00:38:43;11.00;;;7.60;;
52456;SDS011;38369;52.840;7.082;2022-11-06T00:41:10;14.02;;;8.23;;
52456;SDS011;38369;52.840;7.082;2022-11-06T00:43:36;9.85;;;6.57;;
52456;SDS011;38369;52.840;7.082;2022-11-06T00:46:06;18.42;;;7.68;;
52456;SDS011;38369;52.840;7.082;2022-11-06T00:48:33;13.32;;;7.15;;
52456;SDS011;38369;52.840;7.082;2022-11-06T00:51:03;13.45;;;7.35;;
52456;SDS011;38369;52.840;7.082;2022-11-06T00:53:29;10.98;;;7.25;;
52456;SDS011;38369;52.840;7.082;2022-11-06T00:56:02;13.50;;;7.28;;
52456;SDS011;38369;52.840;7.082;2022-11-06T00:58:28;15.70;;;7.60;;
52456;SDS011;38369;52.840;7.082;2022-11-06T01:00:54;12.25;;;7.85;;
52456;SDS011;38369;52.840;7.082;2022-11-06T01:03:20;15.50;;;9.38;;
52456;SDS011;38369;52.840;7.082;2022-11-06T01:05:46;13.07;;;7.78;;
52456;SDS011;38369;52.840;7.082;2022-11-06T01:08:12;14.52;;;7.53;;
52456;SDS011;38369;52.840;7.082;2022-11-06T01:10:38;13.98;;;8.10;;
52456;SDS011;38369;52.840;7.082;2022-11-06T01:13:04;14.52;;;7.88;;
52456;SDS011;38369;52.840;7.082;2022-11-06T01:15:30;10.68;;;7.25;;
52456;SDS011;38369;52.840;7.082;2022-11-06T01:17:56;12.60;;;7.93;;
52456;SDS011;38369;52.840;7.082;2022-11-06T01:20:22;13.02;;;8.07;;
52456;SDS011;38369;52.840;7.082;2022-11-06T01:22:48;16.95;;;7.90;;
52456;SDS011;38369;52.840;7.082;2022-11-06T01:25:14;11.75;;;6.68;;
52456;SDS011;38369;52.840;7.082;2022-11-06T01:27:40;14.68;;;7.10;;
52456;SDS011;38369;52.840;7.082;2022-11-06T01:30:06;10.65;;;7.20;;
52456;SDS011;38369;52.840;7.082;2022-11-06T01:32:33;11.57;;;7.10;;
52456;SDS011;38369;52.840;7.082;2022-11-06T01:34:59;10.82;;;7.60;;
52456;SDS011;38369;52.840;7.082;2022-11-06T01:37:25;11.75;;;7.07;;
52456;SDS011;38369;52.840;7.082;2022-11-06T01:39:51;11.15;;;7.90;;
52456;SDS011;38369;52.840;7.082;2022-11-06T01:42:18;10.02;;;6.80;;
52456;SDS011;38369;52.840;7.082;2022-11-06T01:47:40;10.88;;;6.68;;
52456;SDS011;38369;52.840;7.082;2022-11-06T01:50:08;14.05;;;7.43;;
52456;SDS011;38369;52.840;7.082;2022-11-06T01:52:34;9.68;;;6.30;;
52456;SDS011;38369;52.840;7.082;2022-11-06T01:55:11;9.93;;;6.45;;
52456;SDS011;38369;52.840;7.082;2022-11-06T01:57:38;13.00;;;7.07;;
52456;SDS011;38369;52.840;7.082;2022-11-06T02:00:05;13.30;;;5.85;;
52456;SDS011;38369;52.840;7.082;2022-11-06T02:02:31;11.80;;;6.53;;
52456;SDS011;38369;52.840;7.082;2022-11-06T02:04:57;10.30;;;6.47;;
52456;SDS011;38369;52.840;7.082;2022-11-06T02:07:23;15.85;;;6.25;;
52456;SDS011;38369;52.840;7.082;2022-11-06T02:09:50;12.15;;;5.78;;
52456;SDS011;38369;52.840;7.082;2022-11-06T02:14:54;10.45;;;5.43;;
52456;SDS011;38369;52.840;7.082;2022-11-06T02:23:05;14.57;;;7.07;;
52456;SDS011;38369;52.840;7.082;2022-11-06T02:25:40;15.90;;;6.68;;
52456;SDS011;38369;52.840;7.082;2022-11-06T02:28:14;15.98;;;6.57;;
52456;SDS011;38369;52.840;7.082;2022-11-06T02:30:43;12.07;;;5.78;;
52456;SDS011;38369;52.840;7.082;2022-11-06T02:33:15;13.20;;;6.43;;
52456;SDS011;38369;52.840;7.082;2022-11-06T02:35:57;6.32;;;5.68;;
52456;SDS011;38369;52.840;7.082;2022-11-06T02:38:27;16.85;;;6.07;;
52456;SDS011;38369;52.840;7.082;2022-11-06T02:40:57;10.95;;;5.80;;
52456;SDS011;38369;52.840;7.082;2022-11-06T02:43:27;11.70;;;6.22;;
52456;SDS011;38369;52.840;7.082;2022-11-06T02:46:00;10.27;;;6.22;;
52456;SDS011;38369;52.840;7.082;2022-11-06T02:48:33;9.82;;;6.28;;
52456;SDS011;38369;52.840;7.082;2022-11-06T02:51:02;16.38;;;6.63;;
52456;SDS011;38369;52.840;7.082;2022-11-06T02:53:29;11.00;;;6.03;;
52456;SDS011;38369;52.840;7.082;2022-11-06T02:55:57;14.07;;;6.47;;
52456;SDS011;38369;52.840;7.082;2022-11-06T02:58:30;13.85;;;6.00;;
52456;SDS011;38369;52.840;7.082;2022-11-06T03:00:59;12.45;;;7.22;;
52456;SDS011;38369;52.840;7.082;2022-11-06T03:03:31;14.30;;;6.45;;
52456;SDS011;38369;52.840;7.082;2022-11-06T03:06:03;11.10;;;6.30;;
52456;SDS011;38369;52.840;7.082;2022-11-06T03:11:14;10.23;;;7.03;;
52456;SDS011;38369;52.840;7.082;2022-11-06T03:16:28;12.82;;;7.00;;
52456;SDS011;38369;52.840;7.082;2022-11-06T03:21:34;12.07;;;6.00;;
52456;SDS011;38369;52.840;7.082;2022-11-06T03:24:45;17.65;;;6.68;;
52456;SDS011;38369;52.840;7.082;2022-11-06T03:26:51;13.30;;;6.40;;
52456;SDS011;38369;52.840;7.082;2022-11-06T03:31:57;13.70;;;5.40;;
52456;SDS011;38369;52.840;7.082;2022-11-06T03:34:31;10.45;;;5.95;;
52456;SDS011;38369;52.840;7.082;2022-11-06T03:37:02;9.93;;;5.47;;
52456;SDS011;38369;52.840;7.082;2022-11-06T03:39:36;6.40;;;4.80;;
52456;SDS011;38369;52.840;7.082;2022-11-06T03:42:15;18.00;;;7.55;;
52456;SDS011;38369;52.840;7.082;2022-11-06T03:44:42;11.52;;;6.22;;
52456;SDS011;38369;52.840;7.082;2022-11-06T03:47:11;11.02;;;5.30;;
52456;SDS011;38369;52.840;7.082;2022-11-06T03:49:40;13.93;;;5.90;;
52456;SDS011;38369;52.840;7.082;2022-11-06T03:52:10;18.73;;;5.97;;
52456;SDS011;38369;52.840;7.082;2022-11-06T03:54:38;7.32;;;4.95;;
52456;SDS011;38369;52.840;7.082;2022-11-06T03:57:08;6.40;;;4.45;;
52456;SDS011;38369;52.840;7.082;2022-11-06T03:59:38;11.73;;;5.68;;
52456;SDS011;38369;52.840;7.082;2022-11-06T04:02:06;10.45;;;6.10;;
52456;SDS011;38369;52.840;7.082;2022-11-06T04:07:14;6.53;;;4.93;;
52456;SDS011;38369;52.840;7.082;2022-11-06T04:09:42;7.20;;;4.40;;
52456;SDS011;38369;52.840;7.082;2022-11-06T04:12:46;8.05;;;5.28;;
52456;SDS011;38369;52.840;7.082;2022-11-06T04:15:34;11.73;;;4.72;;
52456;SDS011;38369;52.840;7.082;2022-11-06T04:18:01;8.80;;;4.40;;
52456;SDS011;38369;52.840;7.082;2022-11-06T04:20:29;7.25;;;4.30;;
52456;SDS011;38369;52.840;7.082;2022-11-06T04:23:32;10.25;;;4.30;;
52456;SDS011;38369;52.840;7.082;2022-11-06T04:26:09;8.43;;;4.15;;
52456;SDS011;38369;52.840;7.082;2022-11-06T04:28:59;13.77;;;4.95;;
52456;SDS011;38369;52.840;7.082;2022-11-06T04:33:58;9.25;;;4.10;;
52456;SDS011;38369;52.840;7.082;2022-11-06T04:39:27;8.68;;;4.40;;
52456;SDS011;38369;52.840;7.082;2022-11-06T04:44:36;7.78;;;3.72;;
52456;SDS011;38369;52.840;7.082;2022-11-06T04:47:06;7.88;;;3.88;;
52456;SDS011;38369;52.840;7.082;2022-11-06T04:49:33;7.17;;;4.07;;
52456;SDS011;38369;52.840;7.082;2022-11-06T04:52:01;8.05;;;3.38;;
52456;SDS011;38369;52.840;7.082;2022-11-06T04:54:28;8.80;;;3.90;;
52456;SDS011;38369;52.840;7.082;2022-11-06T04:56:57;8.68;;;3.53;;
52456;SDS011;38369;52.840;7.082;2022-11-06T04:59:24;12.05;;;4.72;;
52456;SDS011;38369;52.840;7.082;2022-11-06T05:01:51;10.00;;;4.43;;
52456;SDS011;38369;52.840;7.082;2022-11-06T05:04:17;12.68;;;4.13;;
52456;SDS011;38369;52.840;7.082;2022-11-06T05:06:43;9.93;;;4.57;;
52456;SDS011;38369;52.840;7.082;2022-11-06T05:09:09;13.52;;;5.22;;
52456;SDS011;38369;52.840;7.082;2022-11-06T05:11:35;15.27;;;4.88;;
52456;SDS011;38369;52.840;7.082;2022-11-06T05:14:02;10.93;;;4.05;;
52456;SDS011;38369;52.840;7.082;2022-11-06T05:16:28;15.05;;;4.43;;
52456;SDS011;38369;52.840;7.082;2022-11-06T05:18:54;8.23;;;3.83;;
52456;SDS011;38369;52.840;7.082;2022-11-06T05:21:20;9.27;;;4.03;;
52456;SDS011;38369;52.840;7.082;2022-11-06T05:24:05;7.97;;;3.85;;
52456;SDS011;38369;52.840;7.082;2022-11-06T05:26:31;8.77;;;4.03;;
52456;SDS011;38369;52.840;7.082;2022-11-06T05:28:57;10.73;;;4.47;;
52456;SDS011;38369;52.840;7.082;2022-11-06T05:31:23;13.60;;;4.00;;
52456;SDS011;38369;52.840;7.082;2022-11-06T05:33:50;9.55;;;4.15;;
52456;SDS011;38369;52.840;7.082;2022-11-06T05:36:16;7.60;;;3.90;;
52456;SDS011;38369;52.840;7.082;2022-11-06T05:38:42;12.45;;;4.75;;
52456;SDS011;38369;52.840;7.082;2022-11-06T05:41:08;10.00;;;3.53;;
52456;SDS011;38369;52.840;7.082;2022-11-06T05:43:34;9.13;;;4.07;;
52456;SDS011;38369;52.840;7.082;2022-11-06T05:46:00;11.25;;;4.18;;
52456;SDS011;38369;52.840;7.082;2022-11-06T05:48:26;11.75;;;4.05;;
52456;SDS011;38369;52.840;7.082;2022-11-06T05:50:53;9.57;;;3.33;;
52456;SDS011;38369;52.840;7.082;2022-11-06T05:53:19;13.00;;;4.45;;
52456;SDS011;38369;52.840;7.082;2022-11-06T05:55:45;14.70;;;3.85;;
52456;SDS011;38369;52.840;7.082;2022-11-06T05:58:11;11.98;;;3.42;;
52456;SDS011;38369;52.840;7.082;2022-11-06T06:00:38;6.50;;;3.58;;
52456;SDS011;38369;52.840;7.082;2022-11-06T06:03:04;8.45;;;3.50;;
52456;SDS011;38369;52.840;7.082;2022-11-06T06:05:30;13.13;;;3.65;;
52456;SDS011;38369;52.840;7.082;2022-11-06T06:07:56;10.77;;;3.53;;
52456;SDS011;38369;52.840;7.082;2022-11-06T06:10:22;9.00;;;3.80;;
52456;SDS011;38369;52.840;7.082;2022-11-06T06:12:48;9.65;;;3.75;;
52456;SDS011;38369;52.840;7.082;2022-11-06T06:15:14;10.10;;;3.78;;
52456;SDS011;38369;52.840;7.082;2022-11-06T06:17:41;8.27;;;3.35;;
52456;SDS011;38369;52.840;7.082;2022-11-06T06:20:07;10.60;;;3.60;;
52456;SDS011;38369;52.840;7.082;2022-11-06T06:22:33;8.82;;;3.30;;
52456;SDS011;38369;52.840;7.082;2022-11-06T06:24:59;6.78;;;3.15;;
52456;SDS011;38369;52.840;7.082;2022-11-06T06:27:25;12.65;;;3.80;;
52456;SDS011;38369;52.840;7.082;2022-11-06T06:29:52;11.77;;;4.20;;
52456;SDS011;38369;52.840;7.082;2022-11-06T06:32:18;7.43;;;3.13;;
52456;SDS011;38369;52.840;7.082;2022-11-06T06:34:44;11.80;;;4.10;;
52456;SDS011;38369;52.840;7.082;2022-11-06T06:37:10;11.93;;;3.53;;
52456;SDS011;38369;52.840;7.082;2022-11-06T06:39:37;8.75;;;2.97;;
52456;SDS011;38369;52.840;7.082;2022-11-06T06:42:03;6.15;;;2.92;;
52456;SDS011;38369;52.840;7.082;2022-11-06T06:44:29;8.13;;;2.70;;
52456;SDS011;38369;52.840;7.082;2022-11-06T06:46:55;10.70;;;2.80;;
52456;SDS011;38369;52.840;7.082;2022-11-06T06:49:21;9.70;;;4.03;;
52456;SDS011;38369;52.840;7.082;2022-11-06T06:51:47;7.15;;;3.28;;
52456;SDS011;38369;52.840;7.082;2022-11-06T06:54:13;10.25;;;3.08;;
52456;SDS011;38369;52.840;7.082;2022-11-06T06:56:39;10.13;;;3.05;;
52456;SDS011;38369;52.840;7.082;2022-11-06T06:59:05;6.30;;;3.45;;
52456;SDS011;38369;52.840;7.082;2022-11-06T07:01:32;9.77;;;2.83;;
52456;SDS011;38369;52.840;7.082;2022-11-06T07:03:58;13.57;;;3.33;;
52456;SDS011;38369;52.840;7.082;2022-11-06T07:06:24;5.43;;;2.53;;
52456;SDS011;38369;52.840;7.082;2022-11-06T07:08:54;6.93;;;2.83;;
52456;SDS011;38369;52.840;7.082;2022-11-06T07:11:20;6.68;;;3.00;;
52456;SDS011;38369;52.840;7.082;2022-11-06T07:13:46;7.93;;;2.50;;
52456;SDS011;38369;52.840;7.082;2022-11-06T07:16:12;9.85;;;2.88;;
52456;SDS011;38369;52.840;7.082;2022-11-06T07:18:39;12.55;;;2.90;;
52456;SDS011;38369;52.840;7.082;2022-11-06T07:21:06;12.48;;;3.33;;
52456;SDS011;38369;52.840;7.082;2022-11-06T07:23:33;7.28;;;2.85;;
52456;SDS011;38369;52.840;7.082;2022-11-06T07:25:59;10.23;;;2.85;;
52456;SDS011;38369;52.840;7.082;2022-11-06T07:28:25;9.80;;;2.97;;
52456;SDS011;38369;52.840;7.082;2022-11-06T07:30:51;13.15;;;3.17;;
52456;SDS011;38369;52.840;7.082;2022-11-06T07:33:17;6.05;;;2.65;;
52456;SDS011;38369;52.840;7.082;2022-11-06T07:35:43;12.10;;;3.05;;
52456;SDS011;38369;52.840;7.082;2022-11-06T07:38:09;7.82;;;2.38;;
52456;SDS011;38369;52.840;7.082;2022-11-06T07:40:35;11.00;;;2.90;;
52456;SDS011;38369;52.840;7.082;2022-11-06T07:43:02;8.32;;;2.63;;
52456;SDS011;38369;52.840;7.082;2022-11-06T07:45:29;7.63;;;2.70;;
52456;SDS011;38369;52.840;7.082;2022-11-06T07:47:55;8.45;;;2.58;;
52456;SDS011;38369;52.840;7.082;2022-11-06T07:50:21;10.13;;;2.60;;
52456;SDS011;38369;52.840;7.082;2022-11-06T07:52:47;9.00;;;2.88;;
52456;SDS011;38369;52.840;7.082;2022-11-06T07:55:13;9.68;;;2.70;;
52456;SDS011;38369;52.840;7.082;2022-11-06T07:57:39;7.75;;;2.35;;
52456;SDS011;38369;52.840;7.082;2022-11-06T08:00:06;5.13;;;2.25;;
52456;SDS011;38369;52.840;7.082;2022-11-06T08:02:32;4.95;;;2.10;;
52456;SDS011;38369;52.840;7.082;2022-11-06T08:04:58;6.40;;;2.67;;
52456;SDS011;38369;52.840;7.082;2022-11-06T08:07:24;5.05;;;2.42;;
52456;SDS011;38369;52.840;7.082;2022-11-06T08:09:50;6.28;;;2.60;;
52456;SDS011;38369;52.840;7.082;2022-11-06T08:12:16;7.68;;;2.50;;
52456;SDS011;38369;52.840;7.082;2022-11-06T08:14:42;7.28;;;2.45;;
52456;SDS011;38369;52.840;7.082;2022-11-06T08:17:08;7.20;;;2.65;;
52456;SDS011;38369;52.840;7.082;2022-11-06T08:19:34;4.55;;;2.20;;
52456;SDS011;38369;52.840;7.082;2022-11-06T08:22:00;5.88;;;2.65;;
52456;SDS011;38369;52.840;7.082;2022-11-06T08:24:27;8.52;;;2.92;;
52456;SDS011;38369;52.840;7.082;2022-11-06T08:26:53;9.30;;;2.17;;
52456;SDS011;38369;52.840;7.082;2022-11-06T08:29:19;8.63;;;3.30;;
52456;SDS011;38369;52.840;7.082;2022-11-06T08:31:45;7.07;;;2.38;;
52456;SDS011;38369;52.840;7.082;2022-11-06T08:34:11;6.47;;;2.47;;
52456;SDS011;38369;52.840;7.082;2022-11-06T08:36:38;4.22;;;2.70;;
52456;SDS011;38369;52.840;7.082;2022-11-06T08:39:05;8.63;;;2.75;;
52456;SDS011;38369;52.840;7.082;2022-11-06T08:41:31;5.95;;;2.50;;
52456;SDS011;38369;52.840;7.082;2022-11-06T08:43:58;6.60;;;2.58;;
52456;SDS011;38369;52.840;7.082;2022-11-06T08:46:24;12.07;;;3.15;;
52456;SDS011;38369;52.840;7.082;2022-11-06T08:48:50;7.57;;;2.70;;
52456;SDS011;38369;52.840;7.082;2022-11-06T08:51:16;9.02;;;3.03;;
52456;SDS011;38369;52.840;7.082;2022-11-06T08:53:43;8.00;;;3.00;;
52456;SDS011;38369;52.840;7.082;2022-11-06T08:56:09;7.85;;;2.70;;
52456;SDS011;38369;52.840;7.082;2022-11-06T08:58:35;11.48;;;3.25;;
52456;SDS011;38369;52.840;7.082;2022-11-06T09:01:01;9.55;;;2.95;;
52456;SDS011;38369;52.840;7.082;2022-11-06T09:03:27;7.65;;;3.10;;
52456;SDS011;38369;52.840;7.082;2022-11-06T09:05:53;7.57;;;3.08;;
52456;SDS011;38369;52.840;7.082;2022-11-06T09:08:19;13.05;;;3.40;;
52456;SDS011;38369;52.840;7.082;2022-11-06T09:10:45;11.00;;;2.53;;
52456;SDS011;38369;52.840;7.082;2022-11-06T09:13:11;9.55;;;2.90;;
52456;SDS011;38369;52.840;7.082;2022-11-06T09:15:37;10.85;;;2.88;;
52456;SDS011;38369;52.840;7.082;2022-11-06T09:18:04;6.88;;;2.97;;
52456;SDS011;38369;52.840;7.082;2022-11-06T09:20:30;7.50;;;2.88;;
52456;SDS011;38369;52.840;7.082;2022-11-06T09:23:00;9.50;;;3.60;;
52456;SDS011;38369;52.840;7.082;2022-11-06T09:25:26;9.18;;;2.97;;
52456;SDS011;38369;52.840;7.082;2022-11-06T09:27:53;8.25;;;3.00;;
52456;SDS011;38369;52.840;7.082;2022-11-06T09:30:20;9.00;;;2.92;;
52456;SDS011;38369;52.840;7.082;2022-11-06T09:32:48;5.93;;;2.67;;
52456;SDS011;38369;52.840;7.082;2022-11-06T09:35:14;9.13;;;2.97;;
52456;SDS011;38369;52.840;7.082;2022-11-06T09:37:41;9.10;;;3.60;;
52456;SDS011;38369;52.840;7.082;2022-11-06T09:40:11;10.23;;;4.18;;
52456;SDS011;38369;52.840;7.082;2022-11-06T09:45:15;9.63;;;3.95;;
52456;SDS011;38369;52.840;7.082;2022-11-06T09:47:46;7.78;;;2.70;;
52456;SDS011;38369;52.840;7.082;2022-11-06T09:50:16;8.25;;;2.15;;
52456;SDS011;38369;52.840;7.082;2022-11-06T09:52:45;6.50;;;2.22;;
52456;SDS011;38369;52.840;7.082;2022-11-06T09:55:17;8.77;;;2.60;;
52456;SDS011;38369;52.840;7.082;2022-11-06T09:57:56;4.82;;;2.85;;
52456;SDS011;38369;52.840;7.082;2022-11-06T10:00:23;7.20;;;2.22;;
52456;SDS011;38369;52.840;7.082;2022-11-06T10:02:50;5.18;;;2.70;;
52456;SDS011;38369;52.840;7.082;2022-11-06T10:05:20;10.65;;;2.50;;
52456;SDS011;38369;52.840;7.082;2022-11-06T10:07:48;6.75;;;3.00;;
52456;SDS011;38369;52.840;7.082;2022-11-06T10:10:16;6.30;;;2.50;;
52456;SDS011;38369;52.840;7.082;2022-11-06T10:12:50;15.30;;;3.03;;
52456;SDS011;38369;52.840;7.082;2022-11-06T10:17:50;8.52;;;2.67;;
52456;SDS011;38369;52.840;7.082;2022-11-06T10:20:20;5.93;;;2.03;;
52456;SDS011;38369;52.840;7.082;2022-11-06T10:25:20;11.73;;;3.20;;
52456;SDS011;38369;52.840;7.082;2022-11-06T10:27:54;9.32;;;2.50;;
52456;SDS011;38369;52.840;7.082;2022-11-06T10:30:21;11.52;;;2.50;;
52456;SDS011;38369;52.840;7.082;2022-11-06T10:40:25;4.55;;;2.38;;
52456;SDS011;38369;52.840;7.082;2022-11-06T10:42:54;6.55;;;1.90;;
52456;SDS011;38369;52.840;7.082;2022-11-06T10:45:22;8.50;;;2.50;;
52456;SDS011;38369;52.840;7.082;2022-11-06T10:47:50;4.97;;;2.22;;
52456;SDS011;38369;52.840;7.082;2022-11-06T10:50:18;7.20;;;1.98;;
52456;SDS011;38369;52.840;7.082;2022-11-06T11:00:22;9.50;;;2.13;;
52456;SDS011;38369;52.840;7.082;2022-11-06T11:02:49;8.75;;;2.30;;
52456;SDS011;38369;52.840;7.082;2022-11-06T11:05:17;7.38;;;1.95;;
52456;SDS011;38369;52.840;7.082;2022-11-06T11:07:44;9.10;;;2.13;;
52456;SDS011;38369;52.840;7.082;2022-11-06T11:10:44;5.43;;;2.08;;
52456;SDS011;38369;52.840;7.082;2022-11-06T11:13:04;4.47;;;1.70;;
52456;SDS011;38369;52.840;7.082;2022-11-06T11:15:43;5.80;;;1.77;;
52456;SDS011;38369;52.840;7.082;2022-11-06T11:18:25;5.30;;;1.40;;
52456;SDS011;38369;52.840;7.082;2022-11-06T11:23:40;7.57;;;1.80;;
52456;SDS011;38369;52.840;7.082;2022-11-06T11:28:48;7.45;;;1.63;;
52456;SDS011;38369;52.840;7.082;2022-11-06T11:31:16;3.92;;;1.40;;
52456;SDS011;38369;52.840;7.082;2022-11-06T11:33:52;7.35;;;1.80;;
52456;SDS011;38369;52.840;7.082;2022-11-06T11:36:19;5.90;;;1.88;;
52456;SDS011;38369;52.840;7.082;2022-11-06T11:38:46;4.90;;;1.55;;
52456;SDS011;38369;52.840;7.082;2022-11-06T11:41:13;4.75;;;1.83;;
52456;SDS011;38369;52.840;7.082;2022-11-06T11:44:05;7.40;;;1.85;;
52456;SDS011;38369;52.840;7.082;2022-11-06T11:46:32;7.10;;;1.83;;
52456;SDS011;38369;52.840;7.082;2022-11-06T11:48:58;4.72;;;1.60;;
52456;SDS011;38369;52.840;7.082;2022-11-06T11:53:53;6.93;;;2.50;;
52456;SDS011;38369;52.840;7.082;2022-11-06T11:56:21;9.52;;;1.90;;
52456;SDS011;38369;52.840;7.082;2022-11-06T11:58:50;8.35;;;2.42;;
52456;SDS011;38369;52.840;7.082;2022-11-06T12:01:18;4.47;;;1.48;;
52456;SDS011;38369;52.840;7.082;2022-11-06T12:03:45;3.72;;;1.55;;
52456;SDS011;38369;52.840;7.082;2022-11-06T12:06:15;6.80;;;2.33;;
52456;SDS011;38369;52.840;7.082;2022-11-06T12:08:46;9.90;;;2.20;;
52456;SDS011;38369;52.840;7.082;2022-11-06T12:11:14;6.60;;;1.50;;
52456;SDS011;38369;52.840;7.082;2022-11-06T12:13:40;8.93;;;2.25;;
52456;SDS011;38369;52.840;7.082;2022-11-06T12:16:09;5.55;;;1.50;;
52456;SDS011;38369;52.840;7.082;2022-11-06T12:18:41;6.85;;;1.90;;
52456;SDS011;38369;52.840;7.082;2022-11-06T12:23:58;5.80;;;1.98;;
52456;SDS011;38369;52.840;7.082;2022-11-06T12:31:48;6.60;;;1.80;;
52456;SDS011;38369;52.840;7.082;2022-11-06T12:34:20;5.75;;;2.03;;
52456;SDS011;38369;52.840;7.082;2022-11-06T12:39:32;5.55;;;1.65;;
52456;SDS011;38369;52.840;7.082;2022-11-06T12:42:00;11.13;;;2.22;;
52456;SDS011;38369;52.840;7.082;2022-11-06T12:44:28;6.25;;;1.60;;
52456;SDS011;38369;52.840;7.082;2022-11-06T13:02:25;6.97;;;1.80;;
52456;SDS011;38369;52.840;7.082;2022-11-06T13:07:44;5.43;;;2.10;;
52456;SDS011;38369;52.840;7.082;2022-11-06T13:10:17;5.82;;;1.98;;
52456;SDS011;38369;52.840;7.082;2022-11-06T13:15:48;8.85;;;2.30;;
52456;SDS011;38369;52.840;7.082;2022-11-06T13:23:15;6.60;;;2.45;;
52456;SDS011;38369;52.840;7.082;2022-11-06T13:30:41;6.32;;;1.63;;
52456;SDS011;38369;52.840;7.082;2022-11-06T13:33:14;3.15;;;1.42;;
52456;SDS011;38369;52.840;7.082;2022-11-06T13:35:41;3.92;;;1.50;;
52456;SDS011;38369;52.840;7.082;2022-11-06T13:38:12;5.55;;;1.38;;
52456;SDS011;38369;52.840;7.082;2022-11-06T13:40:41;6.50;;;2.03;;
52456;SDS011;38369;52.840;7.082;2022-11-06T13:43:16;9.18;;;2.08;;
52456;SDS011;38369;52.840;7.082;2022-11-06T13:51:48;8.02;;;2.08;;
52456;SDS011;38369;52.840;7.082;2022-11-06T13:54:21;5.13;;;2.00;;
52456;SDS011;38369;52.840;7.082;2022-11-06T13:57:12;7.38;;;2.03;;
52456;SDS011;38369;52.840;7.082;2022-11-06T14:02:24;6.68;;;1.90;;
52456;SDS011;38369;52.840;7.082;2022-11-06T14:05:00;4.53;;;1.73;;
52456;SDS011;38369;52.840;7.082;2022-11-06T14:07:33;5.57;;;2.13;;
52456;SDS011;38369;52.840;7.082;2022-11-06T14:10:00;5.63;;;1.77;;
52456;SDS011;38369;52.840;7.082;2022-11-06T14:12:26;7.03;;;1.50;;
52456;SDS011;38369;52.840;7.082;2022-11-06T14:17:36;3.15;;;1.77;;
52456;SDS011;38369;52.840;7.082;2022-11-06T14:20:04;5.90;;;1.83;;
52456;SDS011;38369;52.840;7.082;2022-11-06T14:22:35;5.47;;;1.70;;
52456;SDS011;38369;52.840;7.082;2022-11-06T14:29:54;4.07;;;1.30;;
52456;SDS011;38369;52.840;7.082;2022-11-06T14:34:56;5.75;;;1.92;;
52456;SDS011;38369;52.840;7.082;2022-11-06T14:42:27;10.10;;;2.33;;
52456;SDS011;38369;52.840;7.082;2022-11-06T14:45:16;4.10;;;1.80;;
52456;SDS011;38369;52.840;7.082;2022-11-06T14:47:47;9.90;;;2.30;;
52456;SDS011;38369;52.840;7.082;2022-11-06T14:52:46;5.38;;;2.30;;
52456;SDS011;38369;52.840;7.082;2022-11-06T14:55:21;5.45;;;1.60;;
52456;SDS011;38369;52.840;7.082;2022-11-06T14:57:49;5.28;;;2.35;;
52456;SDS011;38369;52.840;7.082;2022-11-06T15:03:02;6.93;;;2.40;;
52456;SDS011;38369;52.840;7.082;2022-11-06T15:05:29;5.32;;;1.73;;
52456;SDS011;38369;52.840;7.082;2022-11-06T15:07:57;3.13;;;1.60;;
52456;SDS011;38369;52.840;7.082;2022-11-06T15:13:11;7.43;;;2.13;;
52456;SDS011;38369;52.840;7.082;2022-11-06T15:15:41;7.38;;;2.50;;
52456;SDS011;38369;52.840;7.082;2022-11-06T15:18:11;7.63;;;2.70;;
52456;SDS011;38369;52.840;7.082;2022-11-06T15:20:39;5.28;;;1.75;;
52456;SDS011;38369;52.840;7.082;2022-11-06T15:25:38;5.15;;;1.60;;
52456;SDS011;38369;52.840;7.082;2022-11-06T15:28:13;6.55;;;2.17;;
52456;SDS011;38369;52.840;7.082;2022-11-06T15:30:44;7.30;;;1.98;;
52456;SDS011;38369;52.840;7.082;2022-11-06T15:33:15;4.57;;;1.73;;
52456;SDS011;38369;52.840;7.082;2022-11-06T15:35:44;4.45;;;1.70;;
52456;SDS011;38369;52.840;7.082;2022-11-06T15:38:16;6.88;;;2.40;;
52456;SDS011;38369;52.840;7.082;2022-11-06T15:40:43;7.10;;;1.83;;
52456;SDS011;38369;52.840;7.082;2022-11-06T15:43:23;4.70;;;1.42;;
52456;SDS011;38369;52.840;7.082;2022-11-06T15:48:32;5.85;;;1.80;;
52456;SDS011;38369;52.840;7.082;2022-11-06T15:50:58;4.82;;;1.70;;
52456;SDS011;38369;52.840;7.082;2022-11-06T15:53:27;4.57;;;1.60;;
52456;SDS011;38369;52.840;7.082;2022-11-06T15:56:06;5.70;;;2.00;;
52456;SDS011;38369;52.840;7.082;2022-11-06T15:58:33;5.18;;;1.40;;
52456;SDS011;38369;52.840;7.082;2022-11-06T16:01:00;3.97;;;1.63;;
52456;SDS011;38369;52.840;7.082;2022-11-06T16:03:28;5.55;;;1.85;;
52456;SDS011;38369;52.840;7.082;2022-11-06T16:05:55;3.15;;;1.65;;
52456;SDS011;38369;52.840;7.082;2022-11-06T16:08:23;8.27;;;2.15;;
52456;SDS011;38369;52.840;7.082;2022-11-06T16:10:50;11.65;;;2.22;;
52456;SDS011;38369;52.840;7.082;2022-11-06T16:13:17;5.90;;;2.35;;
52456;SDS011;38369;52.840;7.082;2022-11-06T16:15:44;8.90;;;2.33;;
52456;SDS011;38369;52.840;7.082;2022-11-06T16:18:23;4.93;;;2.08;;
52456;SDS011;38369;52.840;7.082;2022-11-06T16:23:18;7.40;;;2.20;;
52456;SDS011;38369;52.840;7.082;2022-11-06T16:25:44;9.23;;;2.42;;
52456;SDS011;38369;52.840;7.082;2022-11-06T16:28:20;8.55;;;2.20;;
52456;SDS011;38369;52.840;7.082;2022-11-06T16:30:46;7.45;;;2.78;;
52456;SDS011;38369;52.840;7.082;2022-11-06T16:33:20;7.05;;;2.25;;
52456;SDS011;38369;52.840;7.082;2022-11-06T16:35:47;9.32;;;3.38;;
52456;SDS011;38369;52.840;7.082;2022-11-06T16:43:12;6.95;;;3.00;;
52456;SDS011;38369;52.840;7.082;2022-11-06T16:48:24;6.75;;;3.13;;
52456;SDS011;38369;52.840;7.082;2022-11-06T16:50:52;6.53;;;2.25;;
52456;SDS011;38369;52.840;7.082;2022-11-06T16:53:19;5.32;;;2.28;;
52456;SDS011;38369;52.840;7.082;2022-11-06T16:55:53;7.05;;;2.53;;
52456;SDS011;38369;52.840;7.082;2022-11-06T16:58:20;7.55;;;2.70;;
52456;SDS011;38369;52.840;7.082;2022-11-06T17:00:53;3.97;;;2.38;;
52456;SDS011;38369;52.840;7.082;2022-11-06T17:03:20;7.43;;;2.72;;
52456;SDS011;38369;52.840;7.082;2022-11-06T17:05:50;7.63;;;2.20;;
52456;SDS011;38369;52.840;7.082;2022-11-06T17:10:46;7.13;;;3.08;;
52456;SDS011;38369;52.840;7.082;2022-11-06T17:15:39;6.50;;;2.80;;
52456;SDS011;38369;52.840;7.082;2022-11-06T17:18:06;6.78;;;2.20;;
52456;SDS011;38369;52.840;7.082;2022-11-06T17:20:32;6.13;;;2.33;;
52456;SDS011;38369;52.840;7.082;2022-11-06T17:22:58;4.13;;;2.13;;
52456;SDS011;38369;52.840;7.082;2022-11-06T17:25:24;8.68;;;3.15;;
52456;SDS011;38369;52.840;7.082;2022-11-06T17:27:50;5.75;;;2.45;;
52456;SDS011;38369;52.840;7.082;2022-11-06T17:30:16;3.33;;;1.70;;